createdAt,value
2023-05-04T00:00:29.334Z,-87
2023-05-04T00:02:58.619Z,-87
2023-05-04T00:05:27.544Z,-86
2023-05-04T00:07:56.164Z,-89
2023-05-04T00:10:28.389Z,-88
2023-05-04T00:12:57.159Z,-87
2023-05-04T00:15:26.184Z,-88
2023-05-04T00:17:55.108Z,-86
2023-05-04T00:20:24.327Z,-86
2023-05-04T00:22:53.348Z,-87
2023-05-04T00:25:22.237Z,-87
2023-05-04T00:27:52.489Z,-87
2023-05-04T00:30:22.007Z,-87
2023-05-04T00:32:50.645Z,-87
2023-05-04T00:35:19.653Z,-86
2023-05-04T00:37:48.416Z,-86
2023-05-04T00:40:17.141Z,-86
2023-05-04T00:42:45.989Z,-87
2023-05-04T00:45:16.935Z,-87
2023-05-04T00:47:46.009Z,-87
2023-05-04T00:50:15.868Z,-86
2023-05-04T00:52:48.244Z,-86
2023-05-04T00:55:17.541Z,-86
2023-05-04T00:57:46.296Z,-86
2023-05-04T01:00:18.081Z,-86
2023-05-04T01:02:46.888Z,-87
2023-05-04T01:05:16.685Z,-87
2023-05-04T01:08:03.030Z,-87
2023-05-04T01:10:44.700Z,-87
2023-05-04T01:13:17.443Z,-87
2023-05-04T01:15:49.733Z,-87
2023-05-04T01:18:18.619Z,-87
2023-05-04T01:20:47.197Z,-86
2023-05-04T01:23:17.500Z,-87
2023-05-04T01:25:54.779Z,-87
2023-05-04T01:28:34.326Z,-87
2023-05-04T01:31:05.655Z,-87
2023-05-04T01:33:34.875Z,-87
2023-05-04T01:36:03.990Z,-87
2023-05-04T01:38:34.156Z,-87
2023-05-04T01:41:03.970Z,-87
2023-05-04T01:43:32.853Z,-87
2023-05-04T01:46:01.604Z,-87
2023-05-04T01:48:30.376Z,-87
2023-05-04T01:50:59.072Z,-87
2023-05-04T01:53:28.029Z,-87
2023-05-04T01:55:57.953Z,-87
2023-05-04T01:58:26.665Z,-87
2023-05-04T02:00:55.180Z,-87
2023-05-04T02:03:24.145Z,-87
2023-05-04T02:05:52.713Z,-87
2023-05-04T02:08:21.489Z,-87
2023-05-04T02:10:50.270Z,-87
2023-05-04T02:13:21.297Z,-87
2023-05-04T02:15:50.111Z,-87
2023-05-04T02:18:18.718Z,-87
2023-05-04T02:20:47.327Z,-87
2023-05-04T02:23:15.893Z,-87
2023-05-04T02:25:44.410Z,-87
2023-05-04T02:28:12.999Z,-87
2023-05-04T02:30:43.637Z,-87
2023-05-04T02:33:12.395Z,-87
2023-05-04T02:35:41.361Z,-87
2023-05-04T02:38:10.021Z,-86
2023-05-04T02:40:39.123Z,-86
2023-05-04T02:43:07.690Z,-87
2023-05-04T02:45:37.235Z,-87
2023-05-04T02:48:07.905Z,-87
2023-05-04T02:50:36.411Z,-87
2023-05-04T02:53:05.035Z,-87
2023-05-04T02:55:33.680Z,-87
2023-05-04T02:58:02.410Z,-87
2023-05-04T03:00:30.973Z,-87
2023-05-04T03:02:59.737Z,-87
2023-05-04T03:05:31.840Z,-87
2023-05-04T03:08:01.447Z,-87
2023-05-04T03:10:29.974Z,-87
2023-05-04T03:13:03.948Z,-87
2023-05-04T03:15:33.270Z,-87
2023-05-04T03:18:01.906Z,-86
2023-05-04T03:20:32.021Z,-87
2023-05-04T03:23:00.787Z,-87
2023-05-04T03:25:30.869Z,-87
2023-05-04T03:27:59.434Z,-87
2023-05-04T03:30:28.138Z,-87
2023-05-04T03:32:56.991Z,-86
2023-05-04T03:35:25.833Z,-87
2023-05-04T03:37:56.196Z,-87
2023-05-04T03:40:24.870Z,-87
2023-05-04T03:42:53.742Z,-87
2023-05-04T03:45:22.968Z,-87
2023-05-04T03:47:51.709Z,-87
2023-05-04T03:50:21.500Z,-87
2023-05-04T03:52:51.842Z,-86
2023-05-04T03:55:23.598Z,-87
2023-05-04T03:57:55.316Z,-87
2023-05-04T04:00:24.234Z,-87
2023-05-04T04:02:52.777Z,-87
2023-05-04T04:05:21.579Z,-87
2023-05-04T04:07:50.363Z,-87
2023-05-04T04:10:19.319Z,-86
2023-05-04T04:12:50.003Z,-86
2023-05-04T04:15:18.573Z,-85
2023-05-04T04:17:47.173Z,-87
2023-05-04T04:20:16.136Z,-88
2023-05-04T04:22:44.704Z,-88
2023-05-04T04:25:13.700Z,-88
2023-05-04T04:27:43.858Z,-88
2023-05-04T04:30:16.123Z,-87
2023-05-04T04:32:45.920Z,-87
2023-05-04T04:35:15.944Z,-86
2023-05-04T04:37:46.756Z,-86
2023-05-04T04:40:19.540Z,-87
2023-05-04T04:42:48.200Z,-86
2023-05-04T04:45:18.987Z,-86
2023-05-04T04:47:48.021Z,-86
2023-05-04T04:50:23.990Z,-86
2023-05-04T04:52:53.045Z,-86
2023-05-04T04:55:21.848Z,-86
2023-05-04T04:57:50.943Z,-86
2023-05-04T05:00:24.328Z,-86
2023-05-04T05:02:52.892Z,-86
2023-05-04T05:05:23.517Z,-87
2023-05-04T05:07:53.263Z,-87
2023-05-04T05:10:23.316Z,-87
2023-05-04T05:12:52.554Z,-86
2023-05-04T05:15:22.965Z,-87
2023-05-04T05:17:53.482Z,-87
2023-05-04T05:20:23.712Z,-87
2023-05-04T05:22:52.319Z,-87
2023-05-04T05:25:21.929Z,-85
2023-05-04T05:27:51.229Z,-84
2023-05-04T05:30:21.799Z,-85
2023-05-04T05:32:52.199Z,-85
2023-05-04T05:35:21.323Z,-85
2023-05-04T05:37:52.086Z,-85
2023-05-04T05:40:22.632Z,-85
2023-05-04T05:42:52.440Z,-85
2023-05-04T05:45:22.781Z,-85
2023-05-04T05:47:51.978Z,-84
2023-05-04T05:50:22.151Z,-84
2023-05-04T05:52:50.791Z,-84
2023-05-04T05:55:19.676Z,-85
2023-05-04T05:57:48.436Z,-85
2023-05-04T06:00:19.737Z,-85
2023-05-04T06:02:50.057Z,-85
2023-05-04T06:05:18.885Z,-85
2023-05-04T06:07:47.607Z,-85
2023-05-04T06:10:16.712Z,-85
2023-05-04T06:12:46.468Z,-85
2023-05-04T06:15:15.274Z,-84
2023-05-04T06:17:44.203Z,-85
2023-05-04T06:20:34.657Z,-85
2023-05-04T06:23:04.083Z,-85
2023-05-04T06:25:41.707Z,-85
2023-05-04T06:28:10.155Z,-85
2023-05-04T06:30:38.785Z,-85
2023-05-04T06:33:07.498Z,-85
2023-05-04T06:35:38.058Z,-83
2023-05-04T06:38:06.610Z,-84
2023-05-04T06:40:35.527Z,-84
2023-05-04T06:43:04.290Z,-84
2023-05-04T06:45:35.731Z,-84
2023-05-04T06:48:04.647Z,-86
2023-05-04T06:50:33.689Z,-84
2023-05-04T06:53:10.418Z,-84
2023-05-04T06:55:39.568Z,-84
2023-05-04T06:58:08.357Z,-85
2023-05-04T07:00:38.027Z,-85
2023-05-04T07:03:06.719Z,-84
2023-05-04T07:05:37.001Z,-84
2023-05-04T07:08:08.061Z,-84
2023-05-04T07:10:36.603Z,-84
2023-05-04T07:13:05.183Z,-84
2023-05-04T07:15:34.749Z,-84
2023-05-04T07:18:03.430Z,-84
2023-05-04T07:20:32.507Z,-84
2023-05-04T07:23:01.158Z,-84
2023-05-04T07:25:32.220Z,-84
2023-05-04T07:28:01.115Z,-85
2023-05-04T07:30:29.945Z,-85
2023-05-04T07:32:58.648Z,-86
2023-05-04T07:35:27.454Z,-85
2023-05-04T07:37:56.255Z,-85
2023-05-04T07:40:25.618Z,-85
2023-05-04T07:42:56.603Z,-85
2023-05-04T07:45:25.200Z,-85
2023-05-04T07:47:53.822Z,-85
2023-05-04T07:50:22.650Z,-85
2023-05-04T07:52:52.495Z,-85
2023-05-04T07:55:21.120Z,-85
2023-05-04T07:57:49.640Z,-85
2023-05-04T08:00:22.429Z,-85
2023-05-04T08:02:51.166Z,-85
2023-05-04T08:05:19.868Z,-85
2023-05-04T08:07:48.468Z,-85
2023-05-04T08:10:17.085Z,-85
2023-05-04T08:12:45.712Z,-85
2023-05-04T08:15:14.897Z,-85
2023-05-04T08:17:45.057Z,-85
2023-05-04T08:20:14.531Z,-85
2023-05-04T08:22:43.028Z,-85
2023-05-04T08:25:13.055Z,-85
2023-05-04T08:27:41.818Z,-85
2023-05-04T08:30:11.294Z,-85
2023-05-04T08:32:40.261Z,-85
2023-05-04T08:35:10.996Z,-86
2023-05-04T08:37:39.654Z,-86
2023-05-04T08:40:10.451Z,-86
2023-05-04T08:42:40.539Z,-86
2023-05-04T08:45:10.653Z,-86
2023-05-04T08:47:43.051Z,-85
2023-05-04T08:50:14.458Z,-85
2023-05-04T08:52:47.881Z,-85
2023-05-04T08:55:18.224Z,-85
2023-05-04T08:57:47.607Z,-85
2023-05-04T09:00:19.600Z,-85
2023-05-04T09:02:50.699Z,-85
2023-05-04T09:05:21.255Z,-85
2023-05-04T09:07:52.589Z,-85
2023-05-04T09:10:21.759Z,-85
2023-05-04T09:12:50.626Z,-85
2023-05-04T09:15:20.875Z,-85
2023-05-04T09:17:59.008Z,-85
2023-05-04T09:20:29.944Z,-85
2023-05-04T09:23:03.771Z,-85
2023-05-04T09:25:32.675Z,-85
2023-05-04T09:28:01.976Z,-85
2023-05-04T09:30:30.524Z,-85
2023-05-04T09:32:59.572Z,-86
2023-05-04T09:35:34.382Z,-85
2023-05-04T09:38:04.101Z,-85
2023-05-04T09:40:34.985Z,-86
2023-05-04T09:43:04.075Z,-86
2023-05-04T09:45:42.876Z,-86
2023-05-04T09:48:20.153Z,-85
2023-05-04T09:50:56.019Z,-85
2023-05-04T09:53:26.918Z,-84
2023-05-04T09:56:09.582Z,-84
2023-05-04T09:58:39.070Z,-84
2023-05-04T10:01:08.446Z,-85
2023-05-04T10:03:37.827Z,-86
2023-05-04T10:06:09.211Z,-86
2023-05-04T10:08:38.887Z,-86
2023-05-04T10:11:09.189Z,-86
2023-05-04T10:13:38.020Z,-85
2023-05-04T10:16:29.245Z,-85
2023-05-04T10:19:16.951Z,-86
2023-05-04T10:22:02.801Z,-85
2023-05-04T10:25:37.839Z,-85
2023-05-04T10:28:23.506Z,-86
2023-05-04T10:30:59.509Z,-86
2023-05-04T10:33:38.574Z,-86
2023-05-04T10:36:08.464Z,-86
2023-05-04T10:38:41.496Z,-86
2023-05-04T10:41:17.766Z,-85
2023-05-04T10:43:49.212Z,-86
2023-05-04T10:46:20.118Z,-86
2023-05-04T10:48:49.558Z,-86
2023-05-04T10:51:22.877Z,-86
2023-05-04T10:53:53.697Z,-86
2023-05-04T10:56:24.384Z,-86
2023-05-04T10:58:53.750Z,-86
2023-05-04T11:01:23.089Z,-85
2023-05-04T11:03:53.806Z,-85
2023-05-04T11:06:26.649Z,-86
2023-05-04T11:09:06.619Z,-84
2023-05-04T11:11:38.715Z,-85
2023-05-04T11:14:07.587Z,-85
2023-05-04T11:16:36.616Z,-84
2023-05-04T11:19:13.553Z,-84
2023-05-04T11:22:07.110Z,-84
2023-05-04T11:24:49.117Z,-86
2023-05-04T11:27:26.647Z,-85
2023-05-04T11:29:57.961Z,-86
2023-05-04T11:32:37.243Z,-85
2023-05-04T11:35:10.062Z,-85
2023-05-04T11:37:43.000Z,-84
2023-05-04T11:40:18.505Z,-85
2023-05-04T11:42:49.882Z,-85
2023-05-04T11:45:20.990Z,-85
2023-05-04T11:47:51.015Z,-85
2023-05-04T11:50:22.025Z,-86
2023-05-04T11:52:51.284Z,-85
2023-05-04T11:55:32.152Z,-85
2023-05-04T11:58:03.585Z,-85
2023-05-04T12:00:40.914Z,-85
2023-05-04T12:03:13.009Z,-85
2023-05-04T12:05:49.090Z,-85
2023-05-04T12:08:26.499Z,-85
2023-05-04T12:11:12.798Z,-85
2023-05-04T12:13:42.944Z,-85
2023-05-04T12:16:14.906Z,-85
2023-05-04T12:18:53.922Z,-85
2023-05-04T12:21:24.654Z,-84
2023-05-04T12:23:53.367Z,-84
2023-05-04T12:26:23.829Z,-85
2023-05-04T12:28:55.274Z,-85
2023-05-04T12:31:26.010Z,-84
2023-05-04T12:33:56.074Z,-84
2023-05-04T12:36:24.610Z,-84
2023-05-04T12:38:53.975Z,-84
2023-05-04T12:41:24.535Z,-85
2023-05-04T12:43:54.184Z,-84
2023-05-04T12:46:32.938Z,-84
2023-05-04T12:49:02.385Z,-85
2023-05-04T12:51:32.473Z,-84
2023-05-04T12:54:02.872Z,-85
2023-05-04T12:56:35.342Z,-85
2023-05-04T12:59:04.210Z,-85
2023-05-04T13:01:35.121Z,-84
2023-05-04T13:04:04.263Z,-85
2023-05-04T13:06:33.041Z,-85
2023-05-04T13:09:06.055Z,-85
2023-05-04T13:11:37.699Z,-85
2023-05-04T13:14:07.754Z,-85
2023-05-04T13:16:36.340Z,-85
2023-05-04T13:19:05.019Z,-84
2023-05-04T13:21:34.238Z,-84
2023-05-04T13:24:03.364Z,-85
2023-05-04T13:26:32.431Z,-84
2023-05-04T13:29:03.622Z,-85
2023-05-04T13:31:32.365Z,-85
2023-05-04T13:34:01.770Z,-84
2023-05-04T13:36:30.604Z,-85
2023-05-04T13:39:00.110Z,-85
2023-05-04T13:41:29.029Z,-85
2023-05-04T13:43:58.595Z,-85
2023-05-04T13:46:30.649Z,-85
2023-05-04T13:49:12.351Z,-85
2023-05-04T13:51:41.705Z,-85
2023-05-04T13:54:10.311Z,-85
2023-05-04T13:56:40.536Z,-85
2023-05-04T13:59:10.105Z,-85
2023-05-04T14:01:43.063Z,-86
2023-05-04T14:04:12.344Z,-87
2023-05-04T14:06:41.519Z,-86
2023-05-04T14:09:11.533Z,-86
2023-05-04T14:11:40.344Z,-86
2023-05-04T14:14:10.334Z,-86
2023-05-04T14:16:43.557Z,-85
2023-05-04T14:19:12.200Z,-86
2023-05-04T14:21:42.032Z,-85
2023-05-04T14:24:11.527Z,-85
2023-05-04T14:26:40.742Z,-85
2023-05-04T14:29:11.889Z,-85
2023-05-04T14:31:43.364Z,-84
2023-05-04T14:34:12.828Z,-85
2023-05-04T14:36:42.177Z,-86
2023-05-04T14:39:10.978Z,-86
2023-05-04T14:41:40.932Z,-86
2023-05-04T14:44:09.946Z,-86
2023-05-04T14:46:39.370Z,-85
2023-05-04T14:49:18.738Z,-85
2023-05-04T14:51:55.244Z,-85
2023-05-04T14:54:23.775Z,-85
2023-05-04T14:56:52.564Z,-86
2023-05-04T14:59:21.407Z,-85
2023-05-04T15:04:36.544Z,-85
2023-05-04T15:07:05.872Z,-85
2023-05-04T15:09:36.200Z,-86
2023-05-04T15:12:05.566Z,-86
2023-05-04T15:14:34.217Z,-85
2023-05-04T15:17:03.118Z,-85
2023-05-04T15:19:31.982Z,-86
2023-05-04T15:22:04.719Z,-85
2023-05-04T15:24:34.173Z,-85
2023-05-04T15:27:03.814Z,-86
2023-05-04T15:29:32.373Z,-85
2023-05-04T15:32:00.960Z,-86
2023-05-04T15:34:30.866Z,-85
2023-05-04T15:36:59.578Z,-85
2023-05-04T15:39:30.863Z,-85
2023-05-04T15:42:00.442Z,-85
2023-05-04T15:44:29.413Z,-85
2023-05-04T15:47:02.428Z,-85
2023-05-04T15:49:31.638Z,-86
2023-05-04T15:52:02.689Z,-86
2023-05-04T15:54:33.879Z,-86
2023-05-04T15:57:03.130Z,-85
2023-05-04T15:59:32.433Z,-85
2023-05-04T16:02:01.003Z,-85
2023-05-04T16:04:33.541Z,-85
2023-05-04T16:07:02.353Z,-85
2023-05-04T16:09:33.393Z,-85
2023-05-04T16:12:02.531Z,-85
2023-05-04T16:14:31.378Z,-85
2023-05-04T16:17:02.715Z,-85
2023-05-04T16:19:31.581Z,-85
2023-05-04T16:22:00.546Z,-86
2023-05-04T16:24:29.570Z,-85
2023-05-04T16:27:00.908Z,-86
2023-05-04T16:29:29.540Z,-86
2023-05-04T16:31:58.564Z,-86
2023-05-04T16:34:27.537Z,-84
2023-05-04T16:36:56.302Z,-85
2023-05-04T16:39:37.107Z,-85
2023-05-04T16:42:07.948Z,-84
2023-05-04T16:44:37.798Z,-83
2023-05-04T16:47:07.435Z,-84
2023-05-04T16:49:36.166Z,-83
2023-05-04T16:52:07.110Z,-81
2023-05-04T16:54:36.059Z,-83
2023-05-04T16:57:07.623Z,-84
2023-05-04T16:59:36.145Z,-82
2023-05-04T17:02:06.845Z,-83
2023-05-04T17:04:35.651Z,-83
2023-05-04T17:07:04.459Z,-83
2023-05-04T17:09:33.265Z,-83
2023-05-04T17:12:02.901Z,-83
2023-05-04T17:14:33.018Z,-82
2023-05-04T17:17:01.498Z,-83
2023-05-04T17:19:30.054Z,-83
2023-05-04T17:21:58.547Z,-82
2023-05-04T17:24:27.428Z,-82
2023-05-04T17:26:56.003Z,-82
2023-05-04T17:29:24.533Z,-82
2023-05-04T17:31:54.808Z,-82
2023-05-04T17:34:23.546Z,-81
2023-05-04T17:36:52.412Z,-83
2023-05-04T17:39:21.095Z,-83
2023-05-04T17:41:49.809Z,-83
2023-05-04T17:44:18.866Z,-83
2023-05-04T17:46:47.738Z,-83
2023-05-04T17:49:19.388Z,-83
2023-05-04T17:51:49.225Z,-83
2023-05-04T17:54:18.466Z,-84
2023-05-04T17:56:47.272Z,-84
2023-05-04T17:59:16.920Z,-84
2023-05-04T18:01:47.190Z,-84
2023-05-04T18:04:17.706Z,-83
2023-05-04T18:06:46.599Z,-84
2023-05-04T18:09:16.041Z,-85
2023-05-04T18:11:44.748Z,-84
2023-05-04T18:14:13.312Z,-84
2023-05-04T18:16:43.273Z,-85
2023-05-04T18:19:12.078Z,-85
2023-05-04T18:21:42.992Z,-86
2023-05-04T18:24:12.214Z,-86
2023-05-04T18:26:40.850Z,-86
2023-05-04T18:29:18.452Z,-86
2023-05-04T18:31:51.230Z,-86
2023-05-04T18:34:19.909Z,-85
2023-05-04T18:36:50.280Z,-85
2023-05-04T18:39:18.991Z,-85
2023-05-04T18:41:48.382Z,-85
2023-05-04T18:44:17.189Z,-85
2023-05-04T18:46:46.176Z,-85
2023-05-04T18:49:15.077Z,-86
2023-05-04T18:51:44.000Z,-85
2023-05-04T18:54:15.941Z,-84
2023-05-04T18:56:47.028Z,-84
2023-05-04T18:59:17.942Z,-86
2023-05-04T19:01:46.844Z,-86
2023-05-04T19:04:15.837Z,-85
2023-05-04T19:06:44.510Z,-86
2023-05-04T19:09:14.982Z,-86
2023-05-04T19:11:43.853Z,-87
2023-05-04T19:14:12.388Z,-87
2023-05-04T19:16:41.032Z,-87
2023-05-04T19:19:17.780Z,-88
2023-05-04T19:21:48.676Z,-87
2023-05-04T19:24:18.894Z,-86
2023-05-04T19:26:47.975Z,-87
2023-05-04T19:29:16.710Z,-87
2023-05-04T19:31:45.600Z,-86
2023-05-04T19:34:15.589Z,-88
2023-05-04T19:36:46.033Z,-88
2023-05-04T19:39:14.982Z,-87
2023-05-04T19:41:46.028Z,-87
2023-05-04T19:44:17.429Z,-88
2023-05-04T19:46:48.848Z,-88
2023-05-04T19:49:22.061Z,-88
2023-05-04T19:51:53.449Z,-87
2023-05-04T19:54:25.286Z,-88
2023-05-04T19:56:55.962Z,-89
2023-05-04T19:59:24.606Z,-89
2023-05-04T20:01:53.586Z,-89
2023-05-04T20:04:22.477Z,-89
2023-05-04T20:06:51.275Z,-88
2023-05-04T20:09:21.131Z,-88
2023-05-04T20:11:50.034Z,-89
2023-05-04T20:14:20.861Z,-88
2023-05-04T20:16:50.413Z,-88
2023-05-04T20:19:19.595Z,-88
2023-05-04T20:21:48.461Z,-88
2023-05-04T20:24:18.281Z,-88
2023-05-04T20:26:47.133Z,-88
2023-05-04T20:29:17.017Z,-87
2023-05-04T20:31:47.569Z,-88
2023-05-04T20:34:19.060Z,-88
2023-05-04T20:36:48.208Z,-88
2023-05-04T20:39:17.288Z,-87
2023-05-04T20:41:46.170Z,-88
2023-05-04T20:44:15.126Z,-88
2023-05-04T20:46:44.058Z,-88
2023-05-04T20:49:15.145Z,-88
2023-05-04T20:51:44.260Z,-88
2023-05-04T20:54:13.004Z,-87
2023-05-04T20:56:42.014Z,-87
2023-05-04T20:59:10.708Z,-87
2023-05-04T21:01:39.537Z,-87
2023-05-04T21:04:08.445Z,-87
2023-05-04T21:06:38.644Z,-87
2023-05-04T21:09:08.982Z,-87
2023-05-04T21:11:37.771Z,-87
2023-05-04T21:14:06.767Z,-87
2023-05-04T21:16:35.651Z,-87
2023-05-04T21:19:06.624Z,-87
2023-05-04T21:21:40.841Z,-87
2023-05-04T21:24:14.832Z,-87
2023-05-04T21:26:47.087Z,-87
2023-05-04T21:29:20.202Z,-87
2023-05-04T21:31:50.076Z,-87
2023-05-04T21:34:19.807Z,-87
2023-05-04T21:36:49.215Z,-87
2023-05-04T21:39:25.573Z,-86
2023-05-04T21:41:55.661Z,-86
2023-05-04T21:44:25.747Z,-87
2023-05-04T21:46:56.082Z,-87
2023-05-04T21:49:28.189Z,-87
2023-05-04T21:51:58.515Z,-88
2023-05-04T21:54:29.239Z,-86
2023-05-04T21:57:04.250Z,-86
2023-05-04T21:59:34.027Z,-86
2023-05-04T22:02:10.829Z,-87
2023-05-04T22:04:45.322Z,-86
2023-05-04T22:07:16.426Z,-87
2023-05-04T22:09:47.723Z,-87
2023-05-04T22:12:17.763Z,-87
2023-05-04T22:14:51.249Z,-87
2023-05-04T22:17:20.121Z,-87
2023-05-04T22:19:52.897Z,-87
2023-05-04T22:22:22.167Z,-87
2023-05-04T22:24:55.039Z,-87
2023-05-04T22:27:26.496Z,-87
2023-05-04T22:29:59.048Z,-88
2023-05-04T22:32:29.609Z,-86
2023-05-04T22:34:59.177Z,-87
2023-05-04T22:37:44.393Z,-86
2023-05-04T22:40:15.267Z,-88
2023-05-04T22:42:48.317Z,-87
2023-05-04T22:48:07.079Z,-87
2023-05-04T22:50:45.945Z,-86
2023-05-04T22:53:15.062Z,-86
2023-05-04T22:55:45.174Z,-86
2023-05-04T22:58:13.935Z,-86
2023-05-04T23:00:44.491Z,-87
2023-05-04T23:03:13.078Z,-87
2023-05-04T23:05:43.343Z,-86
2023-05-04T23:08:12.420Z,-87
2023-05-04T23:10:48.510Z,-86
2023-05-04T23:13:19.623Z,-83
2023-05-04T23:15:50.341Z,-86
2023-05-04T23:18:19.766Z,-87
2023-05-04T23:20:51.152Z,-86
2023-05-04T23:23:21.910Z,-87
2023-05-04T23:25:53.646Z,-87
2023-05-04T23:28:22.522Z,-87
2023-05-04T23:30:51.150Z,-86
2023-05-04T23:33:20.171Z,-85
2023-05-04T23:35:50.878Z,-86
2023-05-04T23:38:19.692Z,-85
2023-05-04T23:40:48.446Z,-86
2023-05-04T23:43:25.683Z,-86
2023-05-04T23:46:02.261Z,-86
2023-05-04T23:48:32.240Z,-87
2023-05-04T23:51:04.739Z,-88
2023-05-04T23:53:36.138Z,-87
2023-05-04T23:56:07.625Z,-86
2023-05-04T23:58:38.548Z,-86
